Time;durP1;ratioP1;P1;durP2;ratioP2;P2;SDS_P1;SDS_P2;PMS_P1;PMS_P2;Temp;Humidity;BMP_temperature;BMP_pressure;BME280_temperature;BME280_humidity;BME280_pressure;Samples;Min_cycle;Max_cycle;Signal;HPM_P1;HPM_P2
2024/01/22 00:00:40;;;;;;;;;;;;;;;-0.69;100.00;97207.97;5066358;28;19937;-73
2024/01/22 00:03:06;;;;;;;;;;;;;;;-0.69;100.00;97212.28;5032831;28;20129;-88
2024/01/22 00:05:32;;;;;;;;;;;;;;;-0.68;100.00;97208.75;5048623;28;19945;-88
2024/01/22 00:07:58;;;;;;;;;;;;;;;-0.67;100.00;97207.84;5066107;28;19960;-88
2024/01/22 00:10:23;;;;;;;;;;;;;;;-0.68;100.00;97188.97;5066682;28;19974;-88
2024/01/22 00:12:49;;;;;;;;;;;;;;;-0.69;100.00;97171.09;5048353;28;20135;-88
2024/01/22 00:15:15;;;;;;;;;;;;;;;-0.70;100.00;97170.25;5066141;28;19931;-89
2024/01/22 00:17:41;;;;;;;;;;;;;;;-0.71;100.00;97168.63;5065931;28;19969;-73
2024/01/22 00:20:07;;;;;;;;;;;;;;;-0.72;100.00;97169.56;5032457;28;19947;-71
2024/01/22 00:22:33;;;;;;;;;;;;;;;-0.72;100.00;97163.59;5048789;28;19943;-70
2024/01/22 00:24:59;;;;;;;;;;;;;;;-0.72;100.00;97173.91;5065895;28;19936;-70
2024/01/22 00:27:24;;;;;;;;;;;;;;;-0.73;100.00;97170.53;5065728;28;19955;-70
2024/01/22 00:29:50;;;;;;;;;;;;;;;-0.74;100.00;97168.06;5047852;28;19936;-70
2024/01/22 00:32:16;;;;;;;;;;;;;;;-0.75;100.00;97159.53;5048042;28;19927;-71
2024/01/22 00:34:42;;;;;;;;;;;;;;;-0.78;100.00;97146.09;5065702;28;20214;-70
2024/01/22 00:37:08;;;;;;;;;;;;;;;-0.80;100.00;97148.78;5064626;28;19935;-76
2024/01/22 00:39:34;;;;;;;;;;;;;;;-0.86;100.00;97142.41;5047926;28;19936;-73
2024/01/22 00:41:59;;;;;;;;;;;;;;;-0.88;100.00;97151.22;5032023;28;20015;-72
2024/01/22 00:44:25;;;;;;;;;;;;;;;-0.92;100.00;97124.91;5031933;28;19997;-73
2024/01/22 00:46:51;;;;;;;;;;;;;;;-0.92;100.00;97122.31;5047966;28;19995;-73
2024/01/22 00:49:17;;;;;;;;;;;;;;;-0.92;100.00;97121.53;5047717;28;19982;-73
2024/01/22 00:51:43;;;;;;;;;;;;;;;-0.92;100.00;97113.78;5048204;28;19946;-73
2024/01/22 00:54:09;;;;;;;;;;;;;;;-0.94;100.00;97093.31;5065332;28;20160;-71
2024/01/22 00:56:34;;;;;;;;;;;;;;;-0.94;100.00;97098.47;5030946;28;19943;-81
2024/01/22 00:59:00;;;;;;;;;;;;;;;-0.94;100.00;97089.94;5047735;28;20035;-73
2024/01/22 01:01:26;;;;;;;;;;;;;;;-0.93;100.00;97082.06;5030924;28;19941;-73
2024/01/22 01:03:52;;;;;;;;;;;;;;;-0.92;100.00;97083.72;5047449;28;20131;-73
2024/01/22 01:06:18;;;;;;;;;;;;;;;-0.90;100.00;97081.81;5047904;28;19933;-73
2024/01/22 01:08:43;;;;;;;;;;;;;;;-0.87;100.00;97070.44;5047190;28;19969;-73
2024/01/22 01:11:09;;;;;;;;;;;;;;;-0.85;100.00;97064.19;5030703;28;19937;-74
2024/01/22 01:13:35;;;;;;;;;;;;;;;-0.83;100.00;97061.50;5031457;28;19935;-76
2024/01/22 01:16:01;;;;;;;;;;;;;;;-0.84;100.00;97058.13;5064941;28;20120;-73
2024/01/22 01:18:27;;;;;;;;;;;;;;;-0.84;100.00;97062.44;5046994;28;20002;-73
2024/01/22 01:20:53;;;;;;;;;;;;;;;-0.84;100.00;97062.44;5064765;28;19946;-73
2024/01/22 01:23:19;;;;;;;;;;;;;;;-0.85;100.00;97063.41;5065496;28;20128;-73
2024/01/22 01:25:45;;;;;;;;;;;;;;;-0.87;100.00;97052.41;5065512;28;19946;-73
2024/01/22 01:28:11;;;;;;;;;;;;;;;-0.87;100.00;97058.38;5046756;28;20261;-73
2024/01/22 01:30:37;;;;;;;;;;;;;;;-0.84;100.00;97047.81;5064658;28;20212;-71
2024/01/22 01:33:02;;;;;;;;;;;;;;;-0.79;100.00;97049.19;5064628;28;20034;-73
2024/01/22 01:35:28;;;;;;;;;;;;;;;-0.77;100.00;97034.41;5046635;28;19938;-75
2024/01/22 01:37:54;;;;;;;;;;;;;;;-0.74;100.00;97029.81;5065307;28;19967;-75
2024/01/22 01:40:20;;;;;;;;;;;;;;;-0.72;100.00;97039.97;5047306;28;19949;-75
2024/01/22 01:42:46;;;;;;;;;;;;;;;-0.69;100.00;97037.97;5046561;28;19942;-75
2024/01/22 01:45:14;;;;;;;;;;;;;;;-0.67;100.00;97045.56;5064610;28;19931;-75
2024/01/22 01:47:41;;;;;;;;;;;;;;;-0.66;100.00;97044.59;5064242;28;19993;-75
2024/01/22 01:50:07;;;;;;;;;;;;;;;-0.67;100.00;97043.78;5030870;28;20012;-76
2024/01/22 01:52:33;;;;;;;;;;;;;;;-0.69;100.00;97050.03;5047207;28;19939;-70
2024/01/22 01:55:01;;;;;;;;;;;;;;;-0.74;100.00;97047.81;5030740;28;20062;-71
2024/01/22 01:57:28;;;;;;;;;;;;;;;-0.78;100.00;97046.47;5047038;28;19936;-70
2024/01/22 01:59:55;;;;;;;;;;;;;;;-0.74;100.00;97052.16;5064139;28;19945;-71
2024/01/22 02:02:21;;;;;;;;;;;;;;;-0.66;100.00;97052.31;5046977;28;20127;-71
2024/01/22 02:04:47;;;;;;;;;;;;;;;-0.60;100.00;97043.25;5064080;28;19938;-71
2024/01/22 02:07:13;;;;;;;;;;;;;;;-0.57;100.00;97033.50;5046904;28;20305;-75
2024/01/22 02:09:46;;;;;;;;;;;;;;;-0.51;100.00;97030.38;5046316;28;19980;-73
2024/01/22 02:12:12;;;;;;;;;;;;;;;-0.45;100.00;97022.13;5046931;28;19963;-73
2024/01/22 02:14:38;;;;;;;;;;;;;;;-0.42;100.00;97011.56;5046188;28;20221;-73
2024/01/22 02:17:04;;;;;;;;;;;;;;;-0.38;100.00;97009.50;5046708;28;19939;-73
2024/01/22 02:19:30;;;;;;;;;;;;;;;-0.36;100.00;97010.19;5063891;28;19959;-73
2024/01/22 02:21:56;;;;;;;;;;;;;;;-0.33;100.00;97011.69;5063883;28;19932;-73
2024/01/22 02:24:21;;;;;;;;;;;;;;;-0.29;100.00;97036.25;5046054;28;19948;-73
2024/01/22 02:26:47;;;;;;;;;;;;;;;-0.25;100.00;97022.94;5063739;28;19933;-87
2024/01/22 02:29:13;;;;;;;;;;;;;;;-0.20;100.00;97038.00;5045972;28;19944;-75
2024/01/22 02:31:39;;;;;;;;;;;;;;;-0.16;100.00;97034.22;5046868;28;19938;-74
2024/01/22 02:34:05;;;;;;;;;;;;;;;-0.13;100.00;97035.69;5046109;28;19949;-75
2024/01/22 02:36:31;;;;;;;;;;;;;;;-0.13;100.00;97035.69;5030233;28;20227;-75
2024/01/22 02:38:56;;;;;;;;;;;;;;;-0.14;100.00;97040.03;5046629;28;19941;-75
2024/01/22 02:41:22;;;;;;;;;;;;;;;-0.13;100.00;97028.75;5045887;28;19948;-74
2024/01/22 02:43:48;;;;;;;;;;;;;;;-0.13;100.00;97033.13;5063337;28;19942;-74
2024/01/22 02:46:14;;;;;;;;;;;;;;;-0.12;100.00;97027.03;5045979;28;19937;-87
2024/01/22 02:48:40;;;;;;;;;;;;;;;-0.09;100.00;97024.16;5063591;28;20338;-70
2024/01/22 02:51:09;;;;;;;;;;;;;;;-0.08;100.00;97024.03;5064155;28;19942;-71
2024/01/22 02:53:35;;;;;;;;;;;;;;;-0.05;100.00;97007.47;5066583;28;19943;-70
2024/01/22 02:56:01;;;;;;;;;;;;;;;-0.02;100.00;97007.22;5033901;28;19941;-70
2024/01/22 02:58:27;;;;;;;;;;;;;;;-0.01;100.00;97013.97;5067514;28;19938;-71
2024/01/22 03:00:53;;;;;;;;;;;;;;;-0.01;100.00;97004.47;5067436;28;19943;-70
2024/01/22 03:03:19;;;;;;;;;;;;;;;0.00;100.00;97005.31;5050486;28;19942;-73
2024/01/22 03:05:45;;;;;;;;;;;;;;;-0.01;100.00;96999.31;5033099;28;20108;-87
2024/01/22 03:08:11;;;;;;;;;;;;;;;0.01;100.00;96999.19;5067710;28;20184;-71
2024/01/22 03:10:37;;;;;;;;;;;;;;;0.03;100.00;96993.91;5049762;28;20036;-70
2024/01/22 03:13:03;;;;;;;;;;;;;;;0.04;100.00;96985.19;5049570;28;19986;-71
2024/01/22 03:15:28;;;;;;;;;;;;;;;0.06;100.00;96985.88;5067206;28;19933;-70
2024/01/22 03:17:54;;;;;;;;;;;;;;;0.08;100.00;96987.34;5032752;28;20008;-70
2024/01/22 03:20:20;;;;;;;;;;;;;;;0.10;100.00;96979.50;5049413;28;19940;-70
2024/01/22 03:22:46;;;;;;;;;;;;;;;0.11;100.00;96974.19;5049398;28;19979;-73
2024/01/22 03:25:14;;;;;;;;;;;;;;;0.11;100.00;96973.38;5049871;28;19946;-76
2024/01/22 03:27:40;;;;;;;;;;;;;;;0.11;100.00;96970.81;5049112;28;19964;-76
2024/01/22 03:30:06;;;;;;;;;;;;;;;0.14;100.00;96966.16;5066959;28;19963;-76
2024/01/22 03:32:32;;;;;;;;;;;;;;;0.16;100.00;96963.47;5067136;28;19941;-76
2024/01/22 03:34:58;;;;;;;;;;;;;;;0.15;100.00;96947.19;5049713;28;19944;-75
2024/01/22 03:37:24;;;;;;;;;;;;;;;0.16;100.00;96947.97;5049085;28;20003;-76
2024/01/22 03:39:50;;;;;;;;;;;;;;;0.17;100.00;96947.84;5066768;28;19943;-75
2024/01/22 03:42:17;;;;;;;;;;;;;;;0.18;100.00;96938.34;5033148;28;19934;-72
2024/01/22 03:44:43;;;;;;;;;;;;;;;0.23;100.00;96948.22;5049794;28;19933;-73
2024/01/22 03:47:09;;;;;;;;;;;;;;;0.26;100.00;96942.81;5066497;28;19999;-73
2024/01/22 03:49:35;;;;;;;;;;;;;;;0.33;100.00;96936.13;5033102;28;19943;-73
2024/01/22 03:52:01;;;;;;;;;;;;;;;0.42;100.00;96937.03;5049562;28;19946;-73
2024/01/22 03:54:26;;;;;;;;;;;;;;;0.50;100.00;96922.47;5066408;28;19937;-73
2024/01/22 03:56:52;;;;;;;;;;;;;;;0.56;100.00;96916.72;5049350;28;19938;-73
2024/01/22 03:59:18;;;;;;;;;;;;;;;0.64;100.00;96922.97;5048481;28;19940;-85
2024/01/22 04:01:44;;;;;;;;;;;;;;;0.67;100.00;96922.66;5049465;28;20134;-77
2024/01/22 04:04:11;;;;;;;;;;;;;;;0.70;100.00;96909.47;5031603;28;19940;-78
2024/01/22 04:06:37;;;;;;;;;;;;;;;0.73;100.00;96897.06;5066805;28;20111;-77
2024/01/22 04:09:03;;;;;;;;;;;;;;;0.77;100.00;96901.00;5066840;28;19967;-77
2024/01/22 04:11:29;;;;;;;;;;;;;;;0.80;100.00;96898.13;5066117;28;20030;-77
2024/01/22 04:13:55;;;;;;;;;;;;;;;0.81;100.00;96902.34;5048412;28;19947;-77
2024/01/22 04:16:20;;;;;;;;;;;;;;;0.81;100.00;96896.34;5031921;28;19931;-75
2024/01/22 04:18:46;;;;;;;;;;;;;;;0.81;100.00;96899.75;5048238;28;20153;-73
2024/01/22 04:21:12;;;;;;;;;;;;;;;0.83;100.00;96896.22;5048259;28;19935;-76
2024/01/22 04:23:38;;;;;;;;;;;;;;;0.82;100.00;96898.00;5065964;28;19940;-76
2024/01/22 04:26:04;;;;;;;;;;;;;;;0.82;100.00;96913.50;5032456;28;19942;-76
2024/01/22 04:28:30;;;;;;;;;;;;;;;0.81;100.00;96904.91;5048091;28;19948;-76
2024/01/22 04:30:56;;;;;;;;;;;;;;;0.80;100.00;96897.34;5048906;28;19979;-76
2024/01/22 04:33:22;;;;;;;;;;;;;;;0.79;100.00;96899.09;5048833;28;19939;-76
2024/01/22 04:35:49;;;;;;;;;;;;;;;0.77;100.00;96893.25;5031470;28;20252;-74
2024/01/22 04:38:15;;;;;;;;;;;;;;;0.75;100.00;96908.06;5048003;28;19946;-84
2024/01/22 04:40:41;;;;;;;;;;;;;;;0.73;100.00;96906.59;5048554;28;19945;-84
2024/01/22 04:43:07;;;;;;;;;;;;;;;0.71;100.00;96911.91;5065770;28;19967;-84
2024/01/22 04:45:33;;;;;;;;;;;;;;;0.71;100.00;96895.59;5031867;28;20006;-84
2024/01/22 04:47:59;;;;;;;;;;;;;;;0.70;100.00;96894.00;5031145;28;19957;-84
2024/01/22 04:50:25;;;;;;;;;;;;;;;0.68;100.00;96890.75;5066214;28;19938;-84
2024/01/22 04:52:51;;;;;;;;;;;;;;;0.67;100.00;96879.59;5048255;28;20233;-84
2024/01/22 04:55:17;;;;;;;;;;;;;;;0.64;100.00;96877.31;5065291;28;19939;-74
2024/01/22 04:57:42;;;;;;;;;;;;;;;0.64;100.00;96902.31;5031875;28;20100;-75
2024/01/22 05:00:08;;;;;;;;;;;;;;;0.62;100.00;96892.13;5048266;28;20199;-74
2024/01/22 05:02:34;;;;;;;;;;;;;;;0.63;100.00;96892.94;5047489;28;19937;-74
2024/01/22 05:05:01;;;;;;;;;;;;;;;0.64;100.00;96886.81;5047898;28;20145;-75
2024/01/22 05:07:27;;;;;;;;;;;;;;;0.64;100.00;96885.03;5048050;28;19936;-75
2024/01/22 05:09:57;;;;;;;;;;;;;;;0.66;100.00;96882.31;5030762;28;19979;-74
2024/01/22 05:12:23;;;;;;;;;;;;;;;0.68;100.00;96883.00;5047967;28;19941;-73
2024/01/22 05:14:49;;;;;;;;;;;;;;;0.69;100.00;96880.25;5046928;28;19973;-73
2024/01/22 05:17:14;;;;;;;;;;;;;;;0.70;100.00;96883.66;5047474;28;19937;-74
2024/01/22 05:19:40;;;;;;;;;;;;;;;0.69;100.00;96874.28;5047444;28;19950;-74
2024/01/22 05:22:06;;;;;;;;;;;;;;;0.70;100.00;96883.66;5030590;28;19935;-73
2024/01/22 05:24:32;;;;;;;;;;;;;;;0.68;100.00;96883.81;5065228;28;20002;-73
2024/01/22 05:26:58;;;;;;;;;;;;;;;0.69;100.00;96884.59;5047062;28;19941;-73
2024/01/22 05:29:24;;;;;;;;;;;;;;;0.69;100.00;96900.09;5064153;28;20277;-74
2024/01/22 05:31:50;;;;;;;;;;;;;;;0.66;100.00;96890.88;5047708;28;19963;-74
2024/01/22 05:34:16;;;;;;;;;;;;;;;0.66;100.00;96890.88;5064587;28;19969;-74
2024/01/22 05:36:43;;;;;;;;;;;;;;;0.66;100.00;96893.47;5030238;28;19992;-75
2024/01/22 05:39:09;;;;;;;;;;;;;;;0.66;100.00;96892.66;5030179;28;19940;-75
2024/01/22 05:41:35;;;;;;;;;;;;;;;0.66;100.00;96895.25;5030208;28;19975;-74
2024/01/22 05:44:00;;;;;;;;;;;;;;;0.67;100.00;96892.50;5030723;28;19960;-74
2024/01/22 05:46:27;;;;;;;;;;;;;;;0.66;100.00;96887.50;5046641;28;20226;-75
2024/01/22 05:48:53;;;;;;;;;;;;;;;0.66;100.00;96888.28;5047281;28;19949;-71
2024/01/22 05:51:19;;;;;;;;;;;;;;;0.68;100.00;96877.84;5046558;28;19932;-73
2024/01/22 05:53:45;;;;;;;;;;;;;;;0.68;100.00;96862.34;5064237;28;20133;-74
2024/01/22 05:56:27;;;;;;;;;;;;;;;0.70;100.00;96865.59;5030679;28;19944;-74
2024/01/22 05:58:56;;;;;;;;;;;;;;;0.72;100.00;96853.34;5030639;28;19934;-74
2024/01/22 06:01:42;;;;;;;;;;;;;;;0.75;100.00;96851.28;5006894;28;19948;-75
2024/01/22 06:04:08;;;;;;;;;;;;;;;0.77;100.00;96849.34;5006467;28;19977;-75
2024/01/22 06:06:34;;;;;;;;;;;;;;;0.82;100.00;96859.28;5022553;28;19991;-70
2024/01/22 06:08:59;;;;;;;;;;;;;;;0.85;100.00;96866.72;4989844;28;19969;-75
2024/01/22 06:11:27;;;;;;;;;;;;;;;0.88;100.00;96856.06;4990011;28;20230;-74
2024/01/22 06:13:53;;;;;;;;;;;;;;;0.91;100.00;96853.22;5006819;28;19949;-73
2024/01/22 06:16:20;;;;;;;;;;;;;;;0.93;100.00;96835.00;4990016;28;19940;-74
2024/01/22 06:18:45;;;;;;;;;;;;;;;0.94;100.00;96829.66;5022294;28;19965;-74
2024/01/22 06:21:13;;;;;;;;;;;;;;;1.00;100.00;96836.03;5006079;28;20156;-74
2024/01/22 06:23:39;;;;;;;;;;;;;;;1.02;100.00;96827.16;5023012;28;20093;-73
2024/01/22 06:26:05;;;;;;;;;;;;;;;1.04;100.00;96829.59;5022512;28;20033;-75
2024/01/22 06:28:31;;;;;;;;;;;;;;;1.06;100.00;96832.03;5005847;28;19955;-75
2024/01/22 06:30:57;;;;;;;;;;;;;;;1.09;100.00;96826.56;5022397;28;19941;-75
2024/01/22 06:33:23;;;;;;;;;;;;;;;1.10;100.00;96816.09;5037556;28;19935;-75
2024/01/22 06:35:49;;;;;;;;;;;;;;;1.13;100.00;96825.31;5063756;28;19939;-75
2024/01/22 06:38:19;;;;;;;;;;;;;;;1.14;100.00;96832.91;5064178;28;19935;-75
2024/01/22 06:40:45;;;;;;;;;;;;;;;1.15;100.00;96826.78;5046056;28;19952;-75
2024/01/22 06:43:11;;;;;;;;;;;;;;;1.17;100.00;96816.31;5045984;28;19944;-76
2024/01/22 06:45:37;;;;;;;;;;;;;;;1.20;100.00;96803.09;5063677;28;19939;-72
2024/01/22 06:48:03;;;;;;;;;;;;;;;1.23;100.00;96804.56;5063613;28;20229;-71
2024/01/22 06:50:29;;;;;;;;;;;;;;;1.27;100.00;96785.22;5064350;28;19931;-70
2024/01/22 06:52:55;;;;;;;;;;;;;;;1.34;100.00;96784.44;5045903;28;20121;-70
2024/01/22 06:55:21;;;;;;;;;;;;;;;1.41;100.00;96795.03;5029283;28;19957;-71
2024/01/22 06:57:47;;;;;;;;;;;;;;;1.44;100.00;96780.97;5064307;28;19942;-70
2024/01/22 07:00:15;;;;;;;;;;;;;;;1.52;100.00;96768.91;5063490;28;19937;-71
2024/01/22 07:02:43;;;;;;;;;;;;;;;1.60;100.00;96766.38;5063799;28;19934;-74
2024/01/22 07:05:10;;;;;;;;;;;;;;;1.63;100.00;96770.41;5063535;28;19958;-74
2024/01/22 07:07:37;;;;;;;;;;;;;;;1.69;100.00;96743.94;5045528;28;19945;-74
2024/01/22 07:10:07;;;;;;;;;;;;;;;1.78;100.00;96739.63;5064259;28;19938;-74
2024/01/22 07:12:42;;;;;;;;;;;;;;;1.94;100.00;96749.25;5064141;28;19927;-73
2024/01/22 07:15:12;;;;;;;;;;;;;;;2.04;100.00;96744.75;5063359;28;19950;-74
2024/01/22 07:17:39;;;;;;;;;;;;;;;2.13;100.00;96751.56;5063815;28;19986;-74
2024/01/22 07:20:06;;;;;;;;;;;;;;;2.14;100.00;96767.88;5063775;28;19940;-73
2024/01/22 07:22:32;;;;;;;;;;;;;;;2.13;100.00;96764.50;5063274;28;19941;-73
2024/01/22 07:24:58;;;;;;;;;;;;;;;2.12;100.00;96768.06;5045610;28;19940;-75
2024/01/22 07:27:23;;;;;;;;;;;;;;;2.14;100.00;96780.81;5063751;28;19936;-74
2024/01/22 07:29:49;;;;;;;;;;;;;;;2.12;100.00;96768.06;5045548;28;19952;-74
2024/01/22 07:32:15;;;;;;;;;;;;;;;2.10;100.00;96766.56;5046156;28;19942;-74
2024/01/22 07:34:41;;;;;;;;;;;;;;;2.10;100.00;96761.41;5045792;28;19932;-77
2024/01/22 07:37:07;;;;;;;;;;;;;;;2.09;100.00;96758.00;5063190;28;19963;-74
2024/01/22 07:39:33;;;;;;;;;;;;;;;2.07;100.00;96757.34;5066248;28;19937;-72
2024/01/22 07:41:59;;;;;;;;;;;;;;;2.07;100.00;96757.34;5049570;28;19950;-75
2024/01/22 07:44:25;;;;;;;;;;;;;;;2.09;100.00;96752.84;5066276;28;19941;-75
2024/01/22 07:46:50;;;;;;;;;;;;;;;2.15;100.00;96767.75;5066628;28;19939;-75
2024/01/22 07:49:16;;;;;;;;;;;;;;;2.19;100.00;96766.47;5066937;28;20021;-74
2024/01/22 07:51:42;;;;;;;;;;;;;;;2.23;100.00;96762.59;5049624;28;19932;-75
2024/01/22 07:54:08;;;;;;;;;;;;;;;2.33;100.00;96767.63;5065513;28;19935;-75
2024/01/22 07:56:34;;;;;;;;;;;;;;;2.41;100.00;96748.72;5067175;28;19937;-75
2024/01/22 07:59:00;;;;;;;;;;;;;;;2.51;100.00;96741.63;5066907;28;19928;-72
2024/01/22 08:01:25;;;;;;;;;;;;;;;2.60;100.00;96748.44;5066843;28;19935;-75
2024/01/22 08:03:51;;;;;;;;;;;;;;;2.78;100.00;96740.50;5049300;28;20128;-74
2024/01/22 08:06:17;;;;;;;;;;;;;;;3.17;100.00;96731.25;5066183;28;20222;-74
2024/01/22 08:08:43;;;;;;;;;;;;;;;3.86;100.00;96740.19;5048357;28;19957;-73
2024/01/22 08:11:09;;;;;;;;;;;;;;;4.40;100.00;96736.81;5066932;28;19944;-74
2024/01/22 08:13:34;;;;;;;;;;;;;;;4.80;100.00;96736.72;5066119;28;19942;-73
2024/01/22 08:16:00;;;;;;;;;;;;;;;5.16;100.00;96739.50;5048938;28;19945;-73
2024/01/22 08:18:26;;;;;;;;;;;;;;;5.42;100.00;96727.91;5066032;28;19964;-70
2024/01/22 08:20:52;;;;;;;;;;;;;;;5.62;100.00;96712.56;5066006;28;19934;-78
2024/01/22 08:23:18;;;;;;;;;;;;;;;5.79;100.00;96706.16;5066763;28;19936;-77
2024/01/22 08:25:44;;;;;;;;;;;;;;;5.91;100.00;96701.31;5065927;28;19943;-77
2024/01/22 08:28:10;;;;;;;;;;;;;;;6.04;100.00;96708.50;5065738;28;19933;-78
2024/01/22 08:30:36;;;;;;;;;;;;;;;6.15;100.00;96689.78;5048657;28;19932;-77
2024/01/22 08:33:02;;;;;;;;;;;;;;;6.29;100.00;96699.38;5065764;28;19936;-79
2024/01/22 08:35:28;;;;;;;;;;;;;;;6.39;100.00;96693.88;5066500;28;20000;-73
2024/01/22 08:37:53;;;;;;;;;;;;;;;6.47;100.00;96695.56;5047907;28;19998;-70
2024/01/22 08:40:23;;;;;;;;;;;;;;;6.49;100.00;96706.59;5048385;28;19937;-70
2024/01/22 08:42:50;;;;;;;;;;;;;;;6.56;100.00;96723.09;5066126;28;19946;-70
2024/01/22 08:45:16;;;;;;;;;;;;;;;6.65;100.00;96727.19;5066292;28;19934;-70
2024/01/22 08:47:45;;;;;;;;;;;;;;;6.77;100.00;96737.13;5048058;28;19937;-70
2024/01/22 08:50:19;;;;;;;;;;;;;;;6.83;100.00;96718.94;5064705;28;19974;-70
2024/01/22 08:52:45;;;;;;;;;;;;;;;6.94;100.00;96717.63;5065316;28;20214;-77
2024/01/22 08:55:11;;;;;;;;;;;;;;;7.03;100.00;96700.03;5065845;28;19936;-73
2024/01/22 08:57:38;;;;;;;;;;;;;;;7.14;100.00;96698.72;5031017;28;19955;-72
2024/01/22 09:00:10;;;;;;;;;;;;;;;7.26;100.00;96705.81;5065263;28;19931;-73
2024/01/22 09:02:37;;;;;;;;;;;;;;;7.43;100.00;96700.31;5065983;28;19936;-72
2024/01/22 09:05:03;;;;;;;;;;;;;;;7.51;100.00;96711.41;5047394;28;19943;-72
2024/01/22 09:07:29;;;;;;;;;;;;;;;7.58;100.00;96711.47;5064565;28;19946;-73
2024/01/22 09:09:56;;;;;;;;;;;;;;;7.61;100.00;96694.63;5047174;28;20064;-73
2024/01/22 09:12:22;;;;;;;;;;;;;;;7.66;100.00;96706.06;5047964;28;19946;-75
2024/01/22 09:14:48;;;;;;;;;;;;;;;7.75;100.00;96706.75;5065035;28;19964;-71
2024/01/22 09:17:14;;;;;;;;;;;;;;;7.81;100.00;96708.59;5064732;28;19940;-71
2024/01/22 09:19:40;;;;;;;;;;;;;;;7.92;100.00;96700.19;5047482;28;19942;-70
2024/01/22 09:22:05;;;;;;;;;;;;;;;8.02;100.00;96707.66;5064794;28;19979;-71
2024/01/22 09:24:31;;;;;;;;;;;;;;;8.15;100.00;96688.63;5047571;28;19978;-70
2024/01/22 09:26:57;;;;;;;;;;;;;;;8.23;100.00;96693.69;5064693;28;19943;-70
2024/01/22 09:29:23;;;;;;;;;;;;;;;8.31;100.00;96690.84;5046832;28;19949;-73
2024/01/22 09:31:49;;;;;;;;;;;;;;;8.37;100.00;96697.13;5031197;28;20111;-77
2024/01/22 09:34:15;;;;;;;;;;;;;;;8.42;100.00;96686.91;5064553;28;20111;-70
2024/01/22 09:36:41;;;;;;;;;;;;;;;8.46;100.00;96688.13;5031175;28;19938;-70
2024/01/22 09:39:07;;;;;;;;;;;;;;;8.48;100.00;96690.53;5064461;28;19934;-70
2024/01/22 09:41:34;;;;;;;;;;;;;;;8.50;100.00;96701.59;5064485;28;19939;-70
2024/01/22 09:44:00;;;;;;;;;;;;;;;8.52;100.00;96697.81;5064442;28;20123;-70
2024/01/22 09:46:27;;;;;;;;;;;;;;;8.51;100.00;96696.19;5064364;28;19932;-70
2024/01/22 09:48:53;;;;;;;;;;;;;;;8.53;100.00;96698.59;5064266;28;19952;-70
2024/01/22 09:51:20;;;;;;;;;;;;;;;8.52;100.00;96692.56;5064682;28;19940;-76
2024/01/22 09:53:47;;;;;;;;;;;;;;;8.51;100.00;96698.78;5047118;28;19946;-76
2024/01/22 09:56:16;;;;;;;;;;;;;;;8.52;100.00;96697.81;5064214;28;19938;-76
2024/01/22 09:58:45;;;;;;;;;;;;;;;8.51;100.00;96688.34;5064171;28;19943;-76
2024/01/22 10:01:11;;;;;;;;;;;;;;;8.50;100.00;96691.13;5063738;28;19931;-76
2024/01/22 10:03:39;;;;;;;;;;;;;;;8.49;100.00;96687.72;5063264;28;19938;-77
2024/01/22 10:06:05;;;;;;;;;;;;;;;8.52;100.00;96689.13;5046533;28;20041;-74
2024/01/22 10:08:31;;;;;;;;;;;;;;;8.54;100.00;96690.53;5030298;28;19954;-81
2024/01/22 10:10:57;;;;;;;;;;;;;;;8.52;100.00;96679.50;5046899;28;19948;-73
2024/01/22 10:13:23;;;;;;;;;;;;;;;8.51;100.00;96679.69;5064695;28;20164;-73
2024/01/22 10:15:49;;;;;;;;;;;;;;;8.46;100.00;96672.44;5046187;28;20125;-74
2024/01/22 10:18:16;;;;;;;;;;;;;;;8.43;100.00;96667.59;5063978;28;19958;-75
2024/01/22 10:20:43;;;;;;;;;;;;;;;8.36;100.00;96655.50;5046990;28;19939;-74
2024/01/22 10:23:10;;;;;;;;;;;;;;;8.30;100.00;96663.13;5063998;28;19939;-73
2024/01/22 10:25:36;;;;;;;;;;;;;;;8.26;100.00;96666.34;5064548;28;19936;-74
2024/01/22 10:28:09;;;;;;;;;;;;;;;8.20;100.00;96664.53;5064521;28;19938;-82
2024/01/22 10:30:36;;;;;;;;;;;;;;;8.11;100.00;96656.84;5030160;28;19952;-82
2024/01/22 10:33:19;;;;;;;;;;;;;;;8.03;100.00;96637.94;5045976;28;19935;-82
2024/01/22 10:35:46;;;;;;;;;;;;;;;7.91;100.00;96638.50;5046048;28;19932;-82
2024/01/22 10:38:13;;;;;;;;;;;;;;;7.82;100.00;96631.84;5063747;28;19943;-82
2024/01/22 10:40:39;;;;;;;;;;;;;;;7.73;100.00;96638.25;5063691;28;19932;-81
2024/01/22 10:43:18;;;;;;;;;;;;;;;7.66;100.00;96627.75;5030319;28;20042;-73
2024/01/22 10:45:48;;;;;;;;;;;;;;;7.59;100.00;96626.16;5063650;28;19954;-73
2024/01/22 10:48:15;;;;;;;;;;;;;;;7.52;100.00;96628.72;5064392;28;20202;-72
2024/01/22 10:50:42;;;;;;;;;;;;;;;7.49;100.00;96624.69;5045582;28;19962;-72
2024/01/22 10:53:09;;;;;;;;;;;;;;;7.47;100.00;96620.66;5029729;28;19957;-72
2024/01/22 10:55:37;;;;;;;;;;;;;;;7.50;100.00;96596.81;5045899;28;19936;-72
2024/01/22 10:58:08;;;;;;;;;;;;;;;7.53;100.00;96602.41;5046378;28;19948;-72
2024/01/22 11:00:40;;;;;;;;;;;;;;;7.56;100.00;96603.03;5046351;28;19940;-72
2024/01/22 11:03:08;;;;;;;;;;;;;;;7.63;100.00;96581.19;5045644;28;19944;-71
2024/01/22 11:05:36;;;;;;;;;;;;;;;7.78;100.00;96551.50;5063379;28;19944;-72
2024/01/22 11:08:05;;;;;;;;;;;;;;;7.91;100.00;96567.19;5063854;28;19949;-73
2024/01/22 11:10:31;;;;;;;;;;;;;;;8.11;100.00;96570.66;5063352;28;19949;-73
2024/01/22 11:12:58;;;;;;;;;;;;;;;8.25;100.00;96542.75;5064452;28;20129;-71
2024/01/22 11:15:24;;;;;;;;;;;;;;;8.27;100.00;96563.44;5067925;28;20053;-71
2024/01/22 11:17:50;;;;;;;;;;;;;;;8.26;100.00;96561.84;5066931;28;20009;-72
2024/01/22 11:20:25;;;;;;;;;;;;;;;8.36;100.00;96561.41;5067164;28;20223;-83
2024/01/22 11:23:05;;;;;;;;;;;;;;;8.50;100.00;96537.75;5049358;28;19957;-79
2024/01/22 11:25:34;;;;;;;;;;;;;;;8.75;100.00;96534.50;5049818;28;19940;-77
2024/01/22 11:28:04;;;;;;;;;;;;;;;9.01;100.00;96540.66;5066754;28;19961;-80
2024/01/22 11:30:30;;;;;;;;;;;;;;;9.17;100.00;96542.03;5067631;28;19959;-82
2024/01/22 11:32:56;;;;;;;;;;;;;;;9.19;100.00;96546.06;5067077;28;19928;-81
2024/01/22 11:35:35;;;;;;;;;;;;;;;9.20;100.00;96518.91;5067041;28;19957;-83
2024/01/22 11:38:03;;;;;;;;;;;;;;;9.20;100.00;96526.75;5049619;28;19931;-73
2024/01/22 11:40:48;;;;;;;;;;;;;;;9.21;100.00;96519.69;5067230;28;19932;-71
2024/01/22 11:43:17;;;;;;;;;;;;;;;9.24;100.00;96520.09;5049682;28;19948;-84
2024/01/22 11:45:44;;;;;;;;;;;;;;;9.28;100.00;96515.22;5048777;28;19947;-84
2024/01/22 11:48:20;;;;;;;;;;;;;;;9.29;100.00;96530.72;5048955;28;20260;-84
2024/01/22 11:51:02;;;;;;;;;;;;;;;9.28;100.00;96533.53;5066572;28;20147;-84
2024/01/22 11:53:28;;;;;;;;;;;;;;;9.23;100.00;96528.13;5066479;28;20109;-83
2024/01/22 11:56:01;;;;;;;;;;;;;;;9.20;100.00;96526.75;5066440;28;19938;-83
2024/01/22 11:58:28;;;;;;;;;;;;;;;9.19;100.00;96519.09;5066415;28;19952;-70
2024/01/22 12:00:53;;;;;;;;;;;;;;;9.16;100.00;96516.91;5067230;28;19935;-74
2024/01/22 12:03:26;;;;;;;;;;;;;;;9.14;100.00;96525.75;5049379;28;20016;-75
2024/01/22 12:05:58;;;;;;;;;;;;;;;9.15;100.00;96508.22;5066300;28;19935;-74
2024/01/22 12:08:24;;;;;;;;;;;;;;;9.14;100.00;96512.66;5048329;28;19959;-74
2024/01/22 12:10:52;;;;;;;;;;;;;;;9.12;100.00;96509.44;5066115;28;20022;-74
2024/01/22 12:13:18;;;;;;;;;;;;;;;9.13;100.00;96498.00;5066307;28;19937;-75
2024/01/22 12:15:44;;;;;;;;;;;;;;;9.14;100.00;96506.63;5048444;28;20124;-73
2024/01/22 12:18:10;;;;;;;;;;;;;;;9.13;100.00;96516.31;5065936;28;19968;-71
2024/01/22 12:20:36;;;;;;;;;;;;;;;9.15;100.00;96526.53;5066026;28;19939;-70
2024/01/22 12:23:06;;;;;;;;;;;;;;;9.16;100.00;96530.00;5065953;28;19939;-70
2024/01/22 12:25:33;;;;;;;;;;;;;;;9.13;100.00;96521.53;5064878;28;19936;-70
2024/01/22 12:28:06;;;;;;;;;;;;;;;9.16;100.00;96496.78;5066692;28;20104;-71
2024/01/22 12:30:32;;;;;;;;;;;;;;;9.18;100.00;96514.88;5065760;28;19953;-70
2024/01/22 12:32:58;;;;;;;;;;;;;;;9.16;100.00;96511.66;5066605;28;19937;-70
2024/01/22 12:35:23;;;;;;;;;;;;;;;9.16;100.00;96512.47;5066253;28;19939;-71
2024/01/22 12:37:49;;;;;;;;;;;;;;;9.19;100.00;96492.94;5066303;28;19942;-73
2024/01/22 12:40:16;;;;;;;;;;;;;;;9.21;100.00;96498.75;5066172;28;19936;-73
2024/01/22 12:42:47;;;;;;;;;;;;;;;9.23;100.00;96492.31;5047915;28;19938;-73